createdAt,value
2019-03-19T04:05:02.486Z,43.50
2019-03-19T04:07:35.445Z,44.00
2019-03-19T04:10:11.581Z,45.00
2019-03-19T04:12:44.980Z,44.00
2019-03-19T04:15:21.418Z,43.80
2019-03-19T04:17:54.847Z,43.30
2019-03-19T04:20:28.250Z,43.40
2019-03-19T04:23:01.353Z,43.10
2019-03-19T04:25:36.524Z,43.10
2019-03-19T04:28:07.740Z,42.80
2019-03-19T04:30:42.411Z,42.60
2019-03-19T04:33:20.487Z,41.90
2019-03-19T04:35:55.210Z,41.70
2019-03-19T04:38:27.231Z,41.10
2019-03-19T04:41:01.261Z,41.40
2019-03-19T04:43:33.587Z,41.50
2019-03-19T04:46:08.959Z,41.10
2019-03-19T04:48:40.846Z,40.80
2019-03-19T04:51:13.731Z,40.40
2019-03-19T04:53:46.129Z,40.30
2019-03-19T04:56:18.450Z,40.30
2019-03-19T04:58:52.750Z,40.40
2019-03-19T05:01:26.928Z,40.80
2019-03-19T05:04:01.021Z,39.60
2019-03-19T05:06:33.670Z,40.10
2019-03-19T05:09:07.218Z,40.00
2019-03-19T05:11:41.222Z,39.30
2019-03-19T05:14:16.276Z,39.00
2019-03-19T05:16:49.450Z,39.60
2019-03-19T05:19:21.809Z,39.20
2019-03-19T05:21:54.386Z,39.10
2019-03-19T05:24:27.006Z,38.70
2019-03-19T05:26:58.284Z,38.00
2019-03-19T05:29:31.099Z,38.30
2019-03-19T05:32:12.401Z,37.30
2019-03-19T05:34:46.579Z,37.20
2019-03-19T05:37:18.909Z,36.50
2019-03-19T05:39:56.193Z,36.20
2019-03-19T05:42:27.393Z,36.60
2019-03-19T05:45:00.171Z,36.10
2019-03-19T05:47:37.052Z,36.80
2019-03-19T05:50:06.591Z,35.60
2019-03-19T05:52:38.991Z,35.20
2019-03-19T05:55:12.360Z,35.20
2019-03-19T05:57:49.542Z,35.50
2019-03-19T06:00:21.514Z,34.80
2019-03-19T06:02:55.278Z,35.00
2019-03-19T06:05:29.067Z,35.90
2019-03-19T06:08:01.599Z,35.70
2019-03-19T06:10:35.127Z,36.10
2019-03-19T06:13:07.933Z,36.30
2019-03-19T06:15:40.400Z,35.50
2019-03-19T06:18:14.719Z,35.60
2019-03-19T06:20:47.378Z,35.20
2019-03-19T06:23:18.679Z,34.40
2019-03-19T06:25:53.652Z,35.10
2019-03-19T06:28:24.913Z,34.60
2019-03-19T06:30:57.335Z,34.50
2019-03-19T06:33:29.801Z,34.60
2019-03-19T06:36:02.588Z,34.40
2019-03-19T06:38:33.900Z,35.00
2019-03-19T06:41:06.515Z,34.40
2019-03-19T06:43:40.489Z,34.00
2019-03-19T06:46:13.482Z,33.70
2019-03-19T06:48:46.132Z,34.00
2019-03-19T06:51:17.585Z,32.90
2019-03-19T06:53:50.904Z,32.80
2019-03-19T06:56:23.448Z,33.00
2019-03-19T06:58:58.540Z,32.80
2019-03-19T07:01:30.927Z,31.10
2019-03-19T07:04:04.684Z,31.60
2019-03-19T07:06:36.074Z,31.70
2019-03-19T07:09:10.355Z,31.90
2019-03-19T07:11:42.838Z,32.70
2019-03-19T07:14:14.307Z,31.90
2019-03-19T07:16:46.751Z,31.50
2019-03-19T07:19:21.812Z,31.20
2019-03-19T07:21:54.347Z,31.30
2019-03-19T07:24:28.606Z,31.70
2019-03-19T07:27:02.962Z,31.80
2019-03-19T07:29:37.047Z,32.00
2019-03-19T07:32:11.234Z,32.40
2019-03-19T07:34:43.584Z,31.90
2019-03-19T07:37:16.216Z,32.70
2019-03-19T07:39:48.539Z,32.90
2019-03-19T07:42:22.876Z,31.80
2019-03-19T07:44:57.152Z,31.50
2019-03-19T07:47:29.721Z,32.30
2019-03-19T07:50:03.890Z,31.90
2019-03-19T07:52:36.372Z,31.10
2019-03-19T07:55:10.707Z,31.00
2019-03-19T07:57:43.388Z,32.20
2019-03-19T08:00:37.445Z,32.00
2019-03-19T08:03:16.096Z,32.50
2019-03-19T08:05:49.478Z,32.00
2019-03-19T08:08:21.955Z,30.60
2019-03-19T08:10:54.206Z,31.70
2019-03-19T08:13:33.536Z,30.90
2019-03-19T08:16:09.172Z,30.80
2019-03-19T08:18:40.767Z,30.70
2019-03-19T08:21:23.326Z,30.70
2019-03-19T08:23:55.797Z,31.10
2019-03-19T08:26:30.592Z,31.50
2019-03-19T08:29:04.918Z,32.00
2019-03-19T08:31:40.287Z,31.10
2019-03-19T08:34:12.963Z,31.40
2019-03-19T08:36:50.021Z,32.20
2019-03-19T08:39:30.301Z,31.60
2019-03-19T08:42:02.511Z,31.30
2019-03-19T08:44:40.635Z,30.80
2019-03-19T08:47:14.502Z,31.40
2019-03-19T08:49:48.516Z,31.70
2019-03-19T08:52:36.913Z,32.10
2019-03-19T08:55:11.203Z,31.90
2019-03-19T08:57:46.695Z,32.10
2019-03-19T09:03:14.586Z,31.90
2019-03-19T09:05:50.162Z,31.80
2019-03-19T09:08:25.331Z,31.60
2019-03-19T09:10:57.948Z,32.40
2019-03-19T09:13:30.380Z,32.70
2019-03-19T09:16:06.883Z,32.10
2019-03-19T09:18:39.451Z,31.40
2019-03-19T09:21:11.886Z,31.70
2019-03-19T09:23:43.331Z,32.00
2019-03-19T09:26:17.860Z,32.20
2019-03-19T09:28:50.470Z,32.00
2019-03-19T09:31:24.597Z,31.40
2019-03-19T09:33:57.220Z,32.20
2019-03-19T09:36:31.391Z,32.10
2019-03-19T09:39:05.439Z,31.70
2019-03-19T09:41:39.868Z,31.90
2019-03-19T09:44:12.259Z,32.00
2019-03-19T09:46:45.518Z,32.10
2019-03-19T09:49:18.095Z,31.50
2019-03-19T09:51:52.411Z,32.00
2019-03-19T09:54:23.933Z,32.10
2019-03-19T09:56:57.992Z,32.20
2019-03-19T09:59:29.367Z,32.70
2019-03-19T10:02:01.819Z,32.90
2019-03-19T10:04:34.077Z,32.70
2019-03-19T10:07:06.749Z,32.50
2019-03-19T10:09:40.808Z,32.70
2019-03-19T10:12:12.060Z,32.20
2019-03-19T10:14:44.634Z,32.50
2019-03-19T10:17:16.891Z,32.40
2019-03-19T10:19:51.887Z,32.70
2019-03-19T10:22:24.227Z,32.50
2019-03-19T10:24:57.907Z,33.00
2019-03-19T10:27:29.229Z,33.10
2019-03-19T10:30:04.558Z,33.00
2019-03-19T10:32:37.844Z,33.00
2019-03-19T10:35:10.688Z,33.60
2019-03-19T10:37:48.136Z,33.60
2019-03-19T10:40:40.250Z,33.70
2019-03-19T10:43:12.378Z,34.00
2019-03-19T10:45:45.037Z,34.10
2019-03-19T10:48:19.234Z,34.10
2019-03-19T10:53:46.612Z,34.50
2019-03-19T10:56:18.992Z,34.90
2019-03-19T10:58:51.975Z,35.10
2019-03-19T11:01:26.245Z,35.40
2019-03-19T11:04:01.409Z,35.40
2019-03-19T11:06:36.595Z,35.70
2019-03-19T11:09:12.009Z,35.70
2019-03-19T11:11:44.381Z,35.80
2019-03-19T11:14:27.508Z,35.80
2019-03-19T11:17:03.194Z,36.20
2019-03-19T11:19:38.783Z,36.40
2019-03-19T11:22:11.055Z,36.60
2019-03-19T11:24:45.962Z,36.90
2019-03-19T11:27:20.277Z,37.00
2019-03-19T11:29:59.693Z,37.20
2019-03-19T11:32:26.498Z,37.40
2019-03-19T11:34:59.211Z,37.60
2019-03-19T11:37:31.540Z,37.70
2019-03-19T11:40:05.598Z,37.90
2019-03-19T11:42:39.087Z,38.00
2019-03-19T11:45:14.318Z,38.20
2019-03-19T11:47:46.936Z,38.30
2019-03-19T11:50:38.324Z,38.30
2019-03-19T11:53:10.686Z,38.50
2019-03-19T11:55:43.089Z,39.00
2019-03-19T11:58:14.502Z,39.00
2019-03-19T12:00:47.138Z,39.30
2019-03-19T12:03:19.763Z,39.20
2019-03-19T12:05:54.900Z,39.30
2019-03-19T12:08:26.077Z,39.40
2019-03-19T12:11:00.256Z,39.60
2019-03-19T12:13:32.738Z,39.80
2019-03-19T12:16:05.402Z,39.80
2019-03-19T12:18:37.647Z,40.50
2019-03-19T12:21:09.449Z,40.30
2019-03-19T12:23:40.769Z,40.30
2019-03-19T12:26:13.441Z,40.50
2019-03-19T12:28:45.945Z,40.60
2019-03-19T12:31:18.929Z,41.40
2019-03-19T12:33:51.649Z,40.80
2019-03-19T12:36:24.121Z,40.80
2019-03-19T12:38:56.519Z,40.90
2019-03-19T12:41:29.201Z,41.00
2019-03-19T12:44:01.458Z,41.00
2019-03-19T12:46:33.766Z,41.00
2019-03-19T12:49:09.730Z,41.20
2019-03-19T12:51:42.851Z,41.20
2019-03-19T12:54:17.116Z,41.20
2019-03-19T12:56:52.324Z,41.30
2019-03-19T12:59:28.926Z,41.30
2019-03-19T13:02:03.188Z,41.30
2019-03-19T13:04:37.039Z,41.60
2019-03-19T13:07:08.534Z,41.80
2019-03-19T13:09:43.421Z,41.70
2019-03-19T13:12:16.262Z,41.50
2019-03-19T13:14:51.503Z,41.60
2019-03-19T13:17:24.048Z,41.80
2019-03-19T13:19:56.307Z,41.70
2019-03-19T13:22:29.558Z,41.80
2019-03-19T13:25:01.818Z,41.90
2019-03-19T13:27:34.246Z,41.80
2019-03-19T13:30:08.122Z,41.80
2019-03-19T13:32:42.479Z,42.00
2019-03-19T13:35:16.214Z,41.90
2019-03-19T13:37:48.659Z,41.90
2019-03-19T13:40:23.623Z,41.80
2019-03-19T13:42:55.095Z,41.70
2019-03-19T13:45:30.223Z,41.60
2019-03-19T13:48:03.104Z,41.50
2019-03-19T13:50:35.616Z,41.40
2019-03-19T13:53:07.117Z,41.40
2019-03-19T13:55:40.640Z,41.40
2019-03-19T13:58:15.636Z,41.10
2019-03-19T14:00:55.281Z,41.30
2019-03-19T14:03:20.567Z,41.30
2019-03-19T14:08:47.407Z,41.50
2019-03-19T14:11:21.270Z,41.50
2019-03-19T14:13:55.622Z,41.80
2019-03-19T14:16:25.787Z,42.80
2019-03-19T14:18:59.611Z,47.20
2019-03-19T14:21:31.633Z,48.80
2019-03-19T14:24:03.572Z,49.80
2019-03-19T14:26:35.602Z,50.70
2019-03-19T14:29:06.630Z,52.00
2019-03-19T14:31:38.791Z,52.20
2019-03-19T14:34:12.616Z,52.80
2019-03-19T14:36:46.187Z,52.80
2019-03-19T14:39:17.255Z,51.70
2019-03-19T14:41:49.164Z,51.90
2019-03-19T14:44:21.981Z,51.50
2019-03-19T14:46:54.033Z,51.40
2019-03-19T14:49:25.951Z,51.70
2019-03-19T14:51:57.963Z,51.30
2019-03-19T14:54:29.868Z,50.90
2019-03-19T14:57:01.997Z,50.50
2019-03-19T14:59:35.626Z,50.00
2019-03-19T15:02:07.540Z,50.00
2019-03-19T15:04:39.589Z,49.30
2019-03-19T15:07:11.468Z,49.10
2019-03-19T15:09:43.753Z,49.40
2019-03-19T15:12:17.472Z,49.00
2019-03-19T15:14:49.437Z,48.80
2019-03-19T15:17:21.768Z,49.30
2019-03-19T15:19:53.680Z,48.80
2019-03-19T15:22:32.592Z,48.60
2019-03-19T15:25:00.347Z,48.40
2019-03-19T15:27:34.578Z,48.10
2019-03-19T15:30:11.107Z,48.00
2019-03-19T15:32:43.301Z,48.00
2019-03-19T15:35:16.962Z,48.40
2019-03-19T15:37:50.994Z,49.90
2019-03-19T15:40:22.414Z,50.00
2019-03-19T15:42:54.567Z,54.50
2019-03-19T15:45:27.844Z,53.40
2019-03-19T15:48:02.949Z,53.50
2019-03-19T15:50:34.169Z,54.60
2019-03-19T15:53:08.241Z,53.60
2019-03-19T15:55:42.369Z,54.60
2019-03-19T15:58:13.503Z,53.50
2019-03-19T16:00:46.411Z,52.60
2019-03-19T16:03:19.273Z,53.00
2019-03-19T16:05:51.347Z,52.50
2019-03-19T16:08:22.305Z,52.60
2019-03-19T16:10:54.224Z,52.50
2019-03-19T16:13:26.589Z,53.50
2019-03-19T16:16:00.394Z,52.80
2019-03-19T16:18:34.310Z,52.90
2019-03-19T16:21:08.125Z,54.20
2019-03-19T16:23:39.334Z,53.80
2019-03-19T16:26:11.761Z,53.30
2019-03-19T16:28:44.651Z,55.80
2019-03-19T16:31:16.834Z,54.30
2019-03-19T16:33:47.872Z,54.10
2019-03-19T16:36:19.759Z,53.80
2019-03-19T16:38:53.434Z,54.50
2019-03-19T16:41:24.481Z,53.40
2019-03-19T16:43:56.374Z,53.90
2019-03-19T16:46:28.270Z,53.40
2019-03-19T16:49:12.589Z,53.50
2019-03-19T16:51:39.840Z,53.60
2019-03-19T16:54:11.368Z,55.80
2019-03-19T16:56:43.277Z,55.90
2019-03-19T16:59:14.213Z,55.50
2019-03-19T17:01:46.158Z,54.80
2019-03-19T17:04:19.957Z,53.90
2019-03-19T17:06:52.235Z,53.90
2019-03-19T17:09:24.885Z,55.20
2019-03-19T17:11:55.828Z,54.70
2019-03-19T17:14:27.843Z,54.70
2019-03-19T17:17:00.102Z,54.70
2019-03-19T17:19:31.185Z,55.20
2019-03-19T17:22:02.129Z,54.90
2019-03-19T17:24:34.888Z,54.40
2019-03-19T17:27:08.908Z,54.00
2019-03-19T17:29:41.023Z,54.10
2019-03-19T17:32:13.611Z,54.40
2019-03-19T17:34:45.560Z,54.10
2019-03-19T17:37:17.592Z,54.10
2019-03-19T17:39:49.720Z,56.60
2019-03-19T17:42:24.035Z,55.40
2019-03-19T17:44:56.195Z,55.60
2019-03-19T17:47:28.239Z,55.10
2019-03-19T17:50:04.800Z,55.50
2019-03-19T17:52:38.802Z,55.20
2019-03-19T17:55:13.798Z,57.20
2019-03-19T17:57:47.350Z,55.70
2019-03-19T18:00:22.358Z,56.00
2019-03-19T18:02:53.648Z,55.40
2019-03-19T18:05:26.011Z,57.40
2019-03-19T18:08:03.055Z,56.70
2019-03-19T18:10:35.900Z,56.20
2019-03-19T18:13:10.210Z,56.70
2019-03-19T18:15:43.285Z,56.60
2019-03-19T18:18:14.191Z,56.10
2019-03-19T18:20:46.745Z,56.50
2019-03-19T18:23:17.816Z,56.30
2019-03-19T18:25:49.687Z,56.20
2019-03-19T18:28:22.261Z,56.20
2019-03-19T18:30:54.174Z,55.90
2019-03-19T18:33:26.435Z,56.30
2019-03-19T18:36:01.594Z,56.30
2019-03-19T18:38:32.682Z,56.50
2019-03-19T18:41:04.523Z,56.00
2019-03-19T18:43:36.556Z,56.20
2019-03-19T18:46:08.661Z,56.60
2019-03-19T18:48:42.998Z,56.10
2019-03-19T18:51:15.340Z,55.80
2019-03-19T18:53:47.581Z,55.90
2019-03-19T18:56:21.178Z,55.50
2019-03-19T18:58:53.450Z,55.50
2019-03-19T19:01:27.143Z,56.30
2019-03-19T19:04:01.049Z,55.50
2019-03-19T19:06:33.202Z,55.30
2019-03-19T19:09:07.050Z,55.20
2019-03-19T19:11:38.066Z,55.70
2019-03-19T19:14:09.022Z,56.40
2019-03-19T19:16:41.244Z,57.10
2019-03-19T19:19:13.654Z,57.20
2019-03-19T19:21:45.138Z,56.60
2019-03-19T19:24:18.913Z,55.90
2019-03-19T19:26:51.429Z,56.40
2019-03-19T19:29:23.408Z,57.20
2019-03-19T19:31:55.771Z,57.30
2019-03-19T19:34:29.305Z,57.30
2019-03-19T19:37:00.445Z,57.70
2019-03-19T19:39:34.110Z,59.20
2019-03-19T19:42:05.143Z,59.30
2019-03-19T19:44:36.178Z,58.20
2019-03-19T19:47:08.537Z,57.60
2019-03-19T19:49:40.556Z,57.80
2019-03-19T19:52:12.461Z,58.10
2019-03-19T19:54:44.669Z,58.90
2019-03-19T19:57:15.817Z,58.60
2019-03-19T19:59:46.901Z,58.00
2019-03-19T20:02:19.312Z,58.40
2019-03-19T20:04:50.405Z,57.80
2019-03-19T20:07:35.888Z,57.40
2019-03-19T20:10:10.395Z,57.50
2019-03-19T20:12:43.944Z,57.30
2019-03-19T20:15:15.107Z,57.00
2019-03-19T20:17:48.729Z,56.70
2019-03-19T20:20:24.597Z,56.90
2019-03-19T20:22:56.616Z,56.70
2019-03-19T20:25:28.484Z,57.80
2019-03-19T20:28:02.113Z,57.00
2019-03-19T20:30:34.306Z,56.60
2019-03-19T20:33:07.971Z,56.90
2019-03-19T20:35:41.634Z,56.60
2019-03-19T20:38:13.751Z,57.00
2019-03-19T20:40:44.789Z,58.10
2019-03-19T20:43:16.686Z,59.30
2019-03-19T20:45:48.587Z,59.60
2019-03-19T20:48:20.834Z,58.90
2019-03-19T20:50:52.841Z,59.10
2019-03-19T20:53:23.882Z,59.30
2019-03-19T20:55:56.077Z,59.10
2019-03-19T20:58:27.947Z,59.00
2019-03-19T21:01:01.628Z,58.70
2019-03-19T21:03:36.224Z,58.20
2019-03-19T21:06:06.158Z,58.00
2019-03-19T21:08:39.748Z,57.80
2019-03-19T21:11:11.721Z,58.00
2019-03-19T21:13:43.875Z,57.90
2019-03-19T21:16:14.975Z,57.80
2019-03-19T21:18:46.858Z,57.50
2019-03-19T21:21:18.859Z,57.60
2019-03-19T21:23:50.893Z,57.30
2019-03-19T21:26:21.926Z,58.00
2019-03-19T21:28:53.833Z,59.50
2019-03-19T21:31:25.935Z,59.70
2019-03-19T21:33:58.139Z,59.30
2019-03-19T21:36:29.225Z,58.60
2019-03-19T21:39:00.163Z,58.40
2019-03-19T21:41:33.818Z,58.20
2019-03-19T21:44:05.781Z,58.60
2019-03-19T21:46:37.951Z,58.40
2019-03-19T21:49:08.993Z,58.20
2019-03-19T21:51:40.919Z,58.10
2019-03-19T21:54:12.028Z,58.30
2019-03-19T21:56:42.994Z,58.30
2019-03-19T21:59:14.991Z,58.30
2019-03-19T22:01:46.143Z,58.40
2019-03-19T22:04:17.054Z,61.10
2019-03-19T22:06:48.031Z,59.40
2019-03-19T22:09:20.002Z,59.80
2019-03-19T22:11:51.032Z,60.80
2019-03-19T22:14:21.963Z,60.50
2019-03-19T22:16:53.023Z,59.80
2019-03-19T22:19:23.945Z,59.90
2019-03-19T22:21:55.990Z,60.00
2019-03-19T22:24:28.039Z,62.00
2019-03-19T22:26:59.967Z,61.80
2019-03-19T22:29:31.889Z,61.20
2019-03-19T22:32:02.905Z,60.30
2019-03-19T22:34:34.927Z,60.00
2019-03-19T22:37:06.919Z,61.10
2019-03-19T22:39:42.632Z,60.80
2019-03-19T22:42:13.961Z,60.70
2019-03-19T22:44:45.002Z,60.10
2019-03-19T22:47:21.300Z,59.60
2019-03-19T22:49:53.321Z,59.60
2019-03-19T22:52:24.230Z,61.00
2019-03-19T22:54:56.222Z,61.00
2019-03-19T22:57:28.234Z,60.10
2019-03-19T23:00:00.461Z,60.00
2019-03-19T23:02:31.406Z,61.40
2019-03-19T23:05:05.090Z,62.70
2019-03-19T23:07:36.979Z,63.10
2019-03-19T23:10:09.239Z,62.60
2019-03-19T23:14:10.100Z,63.50
2019-03-19T23:15:16.609Z,63.80
2019-03-19T23:17:47.787Z,63.50
2019-03-19T23:20:18.831Z,62.70
2019-03-19T23:22:50.992Z,62.00
2019-03-19T23:25:24.750Z,61.40
2019-03-19T23:27:56.980Z,62.00
2019-03-19T23:30:31.146Z,63.00
2019-03-19T23:33:03.029Z,62.40
2019-03-19T23:35:34.075Z,63.00
2019-03-19T23:38:06.062Z,63.20
2019-03-19T23:40:37.209Z,62.60
2019-03-19T23:43:08.125Z,63.60
2019-03-19T23:45:40.012Z,63.90
2019-03-19T23:48:12.264Z,64.20
2019-03-19T23:50:44.136Z,64.10
2019-03-19T23:53:16.166Z,64.10
2019-03-19T23:55:47.120Z,63.10
2019-03-19T23:58:20.745Z,62.50
